Pagrindinis puslapis
METAR-TAF:

METAR-TAF

Oro uostai :

Stokmarknes, Norvegija

platuma: 68-35N, ilguma: 015-01E, Aukštis: 0 m

Dabartinis oras

Ataskaita buvo paskelbta 17 minutes, ne 06:20 UTC
Vėjas 14 kt iš Rytų/Šiaurės Rytų
Temperatūra 0°C
Drėgmė 59%
Slėgis 1001 hPa
Matomumas 10 km arba daugiau
Mažai debesys ne aukštis 2500 ft
Išsisklaidę debesys ne aukštis 5300 ft

METAR: ENSK 020620Z 06014KT 9999 FEW025 SCT053 00/M07 Q1001

Laikas: 07:37 (06:37 UTC)


TAF: trūkstamas

Orai ataskaitas ir orų prognozės (METAR, TAF).

turimą stotys yra geltonos ir raudonos taškus žemėlapyje.

Perkelti pele per norėdami pamatyti stoties vardą.

Tada spustelėkite, norėdami matyti oro stebėjimo ir prognozės.

Norėdami pakeisti žemėlapį: spustelėkite ant žalios mygtukų su juodo kryžiaus žemyn,; žalią mygtuką su brūkšneliu, jei norite nutolinti; arba žalių rodyklių gretimoms žemėlapius.


METAR-TAF: